sensor_id;sensor_type;location;lat;lon;timestamp;pressure;altitude;pressure_sealevel;temperature;humidity
69035;BME280;56091;55.756;37.412;2022-08-01T00:02:43;99294.59;;;19.31;47.14
69035;BME280;56091;55.756;37.412;2022-08-01T00:07:44;99276.63;;;19.17;47.34
69035;BME280;56091;55.756;37.412;2022-08-01T00:12:45;99273.72;;;19.13;47.22
69035;BME280;56091;55.756;37.412;2022-08-01T00:17:46;99261.22;;;18.98;47.55
69035;BME280;56091;55.756;37.412;2022-08-01T00:22:50;99265.03;;;18.88;48.16
69035;BME280;56091;55.756;37.412;2022-08-01T00:27:50;99282.03;;;18.85;49.02
69035;BME280;56091;55.756;37.412;2022-08-01T00:32:52;99281.13;;;18.76;48.86
69035;BME280;56091;55.756;37.412;2022-08-01T00:37:54;99277.84;;;18.65;48.40
69035;BME280;56091;55.756;37.412;2022-08-01T00:42:55;99278.56;;;18.57;49.11
69035;BME280;56091;55.756;37.412;2022-08-01T00:47:56;99285.94;;;18.57;49.36
69035;BME280;56091;55.756;37.412;2022-08-01T00:52:58;99283.44;;;18.46;49.26
69035;BME280;56091;55.756;37.412;2022-08-01T00:58:25;99277.78;;;18.43;49.89
69035;BME280;56091;55.756;37.412;2022-08-01T01:03:53;99279.81;;;18.37;50.40
69035;BME280;56091;55.756;37.412;2022-08-01T01:14:10;99276.19;;;18.28;50.68
69035;BME280;56091;55.756;37.412;2022-08-01T01:19:20;99271.16;;;18.21;50.08
69035;BME280;56091;55.756;37.412;2022-08-01T01:29:41;99266.91;;;18.15;49.61
69035;BME280;56091;55.756;37.412;2022-08-01T01:34:44;99280.84;;;18.13;49.35
69035;BME280;56091;55.756;37.412;2022-08-01T01:39:48;99276.81;;;18.11;49.92
69035;BME280;56091;55.756;37.412;2022-08-01T01:44:50;99278.25;;;18.08;49.45
69035;BME280;56091;55.756;37.412;2022-08-01T01:49:54;99276.13;;;18.05;49.50
69035;BME280;56091;55.756;37.412;2022-08-01T01:54:56;99278.84;;;18.05;50.03
69035;BME280;56091;55.756;37.412;2022-08-01T01:59:59;99278.94;;;18.00;49.86
69035;BME280;56091;55.756;37.412;2022-08-01T02:05:06;99275.41;;;18.00;50.05
69035;BME280;56091;55.756;37.412;2022-08-01T02:10:10;99269.38;;;18.03;50.47
69035;BME280;56091;55.756;37.412;2022-08-01T02:15:12;99272.78;;;18.08;50.25
69035;BME280;56091;55.756;37.412;2022-08-01T02:20:14;99220.63;;;17.82;51.06
69035;BME280;56091;55.756;37.412;2022-08-01T02:25:23;99264.88;;;18.21;51.05
69035;BME280;56091;55.756;37.412;2022-08-01T02:30:26;99258.59;;;18.34;51.11
69035;BME280;56091;55.756;37.412;2022-08-01T02:35:34;99236.97;;;18.24;50.65
69035;BME280;56091;55.756;37.412;2022-08-01T02:40:37;99267.88;;;18.47;50.84
69035;BME280;56091;55.756;37.412;2022-08-01T02:45:45;99266.13;;;18.51;50.82
69035;BME280;56091;55.756;37.412;2022-08-01T02:50:53;99251.88;;;18.54;50.40
69035;BME280;56091;55.756;37.412;2022-08-01T02:55:55;99210.03;;;18.45;49.80
69035;BME280;56091;55.756;37.412;2022-08-01T03:00:58;99230.84;;;18.77;49.39
69035;BME280;56091;55.756;37.412;2022-08-01T03:06:01;99271.00;;;18.90;49.67
69035;BME280;56091;55.756;37.412;2022-08-01T03:11:03;99259.47;;;18.80;49.60
69035;BME280;56091;55.756;37.412;2022-08-01T03:16:12;99269.75;;;18.97;49.22
69035;BME280;56091;55.756;37.412;2022-08-01T03:21:15;99260.84;;;18.91;48.97
69035;BME280;56091;55.756;37.412;2022-08-01T03:26:18;99274.00;;;19.03;49.34
69035;BME280;56091;55.756;37.412;2022-08-01T03:31:26;99276.56;;;19.08;49.18
69035;BME280;56091;55.756;37.412;2022-08-01T03:36:29;99266.00;;;19.15;49.57
69035;BME280;56091;55.756;37.412;2022-08-01T03:41:34;99259.28;;;19.21;49.46
69035;BME280;56091;55.756;37.412;2022-08-01T03:46:48;99267.75;;;19.34;49.16
69035;BME280;56091;55.756;37.412;2022-08-01T03:51:54;99212.78;;;19.13;49.39
69035;BME280;56091;55.756;37.412;2022-08-01T03:56:57;99248.75;;;19.68;48.99
69035;BME280;56091;55.756;37.412;2022-08-01T04:01:58;99254.81;;;19.97;48.40
69035;BME280;56091;55.756;37.412;2022-08-01T04:07:00;99228.25;;;19.97;47.70
69035;BME280;56091;55.756;37.412;2022-08-01T04:12:07;99249.09;;;20.33;47.39
69035;BME280;56091;55.756;37.412;2022-08-01T04:17:08;99252.19;;;20.49;46.64
69035;BME280;56091;55.756;37.412;2022-08-01T04:22:13;99222.03;;;20.40;46.46
69035;BME280;56091;55.756;37.412;2022-08-01T04:27:21;99259.63;;;20.75;45.89
69035;BME280;56091;55.756;37.412;2022-08-01T04:32:25;99264.28;;;20.92;45.96
69035;BME280;56091;55.756;37.412;2022-08-01T04:37:29;99262.34;;;21.01;45.60
69035;BME280;56091;55.756;37.412;2022-08-01T04:42:37;99267.16;;;21.13;44.78
69035;BME280;56091;55.756;37.412;2022-08-01T04:47:39;99267.47;;;21.20;43.86
69035;BME280;56091;55.756;37.412;2022-08-01T04:52:41;99263.88;;;21.37;43.44
69035;BME280;56091;55.756;37.412;2022-08-01T04:57:44;99262.09;;;21.41;42.87
69035;BME280;56091;55.756;37.412;2022-08-01T05:02:45;99264.00;;;21.58;43.53
69035;BME280;56091;55.756;37.412;2022-08-01T05:07:47;99266.84;;;21.70;42.68
69035;BME280;56091;55.756;37.412;2022-08-01T05:12:47;99248.00;;;21.69;42.52
69035;BME280;56091;55.756;37.412;2022-08-01T05:17:51;99254.16;;;21.95;41.91
69035;BME280;56091;55.756;37.412;2022-08-01T05:22:52;99270.06;;;22.11;41.87
69035;BME280;56091;55.756;37.412;2022-08-01T05:28:00;99264.56;;;22.11;41.82
69035;BME280;56091;55.756;37.412;2022-08-01T05:33:01;99255.03;;;22.08;41.27
69035;BME280;56091;55.756;37.412;2022-08-01T05:38:04;99253.41;;;22.16;40.63
69035;BME280;56091;55.756;37.412;2022-08-01T05:43:05;99264.44;;;22.37;40.68
69035;BME280;56091;55.756;37.412;2022-08-01T05:48:11;99255.13;;;22.50;40.40
69035;BME280;56091;55.756;37.412;2022-08-01T05:53:12;99263.91;;;22.65;39.47
69035;BME280;56091;55.756;37.412;2022-08-01T05:58:13;99265.09;;;22.76;39.27
69035;BME280;56091;55.756;37.412;2022-08-01T06:03:14;99254.66;;;23.03;38.93
69035;BME280;56091;55.756;37.412;2022-08-01T06:08:15;99257.53;;;22.94;38.24
69035;BME280;56091;55.756;37.412;2022-08-01T06:13:16;99261.25;;;23.10;38.29
69035;BME280;56091;55.756;37.412;2022-08-01T06:18:19;99268.69;;;23.43;37.37
69035;BME280;56091;55.756;37.412;2022-08-01T06:23:20;99271.03;;;23.66;36.87
69035;BME280;56091;55.756;37.412;2022-08-01T06:28:22;99250.84;;;23.86;36.03
69035;BME280;56091;55.756;37.412;2022-08-01T06:33:23;99236.63;;;23.96;35.24
69035;BME280;56091;55.756;37.412;2022-08-01T06:38:24;99242.25;;;24.00;35.75
69035;BME280;56091;55.756;37.412;2022-08-01T06:43:25;99239.47;;;24.12;35.39
69035;BME280;56091;55.756;37.412;2022-08-01T06:48:25;99266.44;;;24.31;35.06
69035;BME280;56091;55.756;37.412;2022-08-01T06:53:26;99267.31;;;24.48;35.38
69035;BME280;56091;55.756;37.412;2022-08-01T06:58:27;99270.75;;;24.45;35.27
69035;BME280;56091;55.756;37.412;2022-08-01T07:03:28;99274.91;;;24.63;34.53
69035;BME280;56091;55.756;37.412;2022-08-01T07:08:29;99258.56;;;24.70;33.77
69035;BME280;56091;55.756;37.412;2022-08-01T07:13:30;99273.50;;;24.98;33.55
69035;BME280;56091;55.756;37.412;2022-08-01T07:18:34;99251.44;;;24.98;33.17
69035;BME280;56091;55.756;37.412;2022-08-01T07:23:35;99278.16;;;25.09;32.73
69035;BME280;56091;55.756;37.412;2022-08-01T07:28:41;99268.28;;;25.08;32.88
69035;BME280;56091;55.756;37.412;2022-08-01T07:33:45;99269.19;;;25.41;33.19
69035;BME280;56091;55.756;37.412;2022-08-01T07:38:46;99256.25;;;25.61;33.11
69035;BME280;56091;55.756;37.412;2022-08-01T07:43:48;99278.78;;;25.63;33.26
69035;BME280;56091;55.756;37.412;2022-08-01T07:48:49;99244.78;;;25.59;32.87
69035;BME280;56091;55.756;37.412;2022-08-01T07:53:56;99259.75;;;25.58;32.14
69035;BME280;56091;55.756;37.412;2022-08-01T08:04:42;99261.97;;;25.68;32.60
69035;BME280;56091;55.756;37.412;2022-08-01T08:09:43;99274.81;;;25.92;32.46
69035;BME280;56091;55.756;37.412;2022-08-01T08:14:44;99258.31;;;25.80;32.05
69035;BME280;56091;55.756;37.412;2022-08-01T08:19:44;99259.66;;;26.02;32.77
69035;BME280;56091;55.756;37.412;2022-08-01T08:24:45;99272.66;;;26.17;32.67
69035;BME280;56091;55.756;37.412;2022-08-01T08:29:47;99253.44;;;26.05;32.19
69035;BME280;56091;55.756;37.412;2022-08-01T08:34:47;99261.53;;;25.98;32.25
69035;BME280;56091;55.756;37.412;2022-08-01T08:39:49;99258.94;;;25.89;31.15
69035;BME280;56091;55.756;37.412;2022-08-01T08:44:51;99256.19;;;25.73;31.70
69035;BME280;56091;55.756;37.412;2022-08-01T08:49:55;99250.75;;;25.61;31.74
69035;BME280;56091;55.756;37.412;2022-08-01T08:54:57;99250.28;;;25.59;31.83
69035;BME280;56091;55.756;37.412;2022-08-01T09:00:02;99231.69;;;25.40;31.68
69035;BME280;56091;55.756;37.412;2022-08-01T09:05:04;99248.00;;;25.45;31.34
69035;BME280;56091;55.756;37.412;2022-08-01T09:10:07;99230.59;;;25.28;32.21
69035;BME280;56091;55.756;37.412;2022-08-01T09:15:11;99244.34;;;25.57;31.50
69035;BME280;56091;55.756;37.412;2022-08-01T09:20:23;99228.03;;;25.51;31.37
69035;BME280;56091;55.756;37.412;2022-08-01T09:25:27;99238.00;;;25.56;31.92
69035;BME280;56091;55.756;37.412;2022-08-01T09:30:38;99227.22;;;25.83;31.30
69035;BME280;56091;55.756;37.412;2022-08-01T09:35:40;99214.06;;;25.92;30.91
69035;BME280;56091;55.756;37.412;2022-08-01T09:45:56;99224.47;;;26.54;29.85
69035;BME280;56091;55.756;37.412;2022-08-01T09:50:58;99232.31;;;26.67;29.65
69035;BME280;56091;55.756;37.412;2022-08-01T09:56:21;99230.19;;;26.61;30.14
69035;BME280;56091;55.756;37.412;2022-08-01T10:01:25;99218.81;;;26.85;29.60
69035;BME280;56091;55.756;37.412;2022-08-01T10:06:26;99205.63;;;27.21;29.23
69035;BME280;56091;55.756;37.412;2022-08-01T10:11:28;99204.75;;;27.87;27.22
69035;BME280;56091;55.756;37.412;2022-08-01T10:16:30;99212.59;;;28.08;25.86
69035;BME280;56091;55.756;37.412;2022-08-01T10:21:33;99221.31;;;28.06;26.44
69035;BME280;56091;55.756;37.412;2022-08-01T10:26:38;99222.56;;;27.85;26.70
69035;BME280;56091;55.756;37.412;2022-08-01T10:31:41;99220.50;;;27.82;26.92
69035;BME280;56091;55.756;37.412;2022-08-01T10:36:44;99207.31;;;27.72;26.97
69035;BME280;56091;55.756;37.412;2022-08-01T10:41:46;99216.72;;;27.91;26.58
69035;BME280;56091;55.756;37.412;2022-08-01T10:46:50;99227.63;;;28.33;25.88
69035;BME280;56091;55.756;37.412;2022-08-01T10:51:53;99215.91;;;28.17;25.80
69035;BME280;56091;55.756;37.412;2022-08-01T10:56:59;99194.59;;;27.94;26.10
69035;BME280;56091;55.756;37.412;2022-08-01T11:02:04;99203.22;;;28.46;25.40
69035;BME280;56091;55.756;37.412;2022-08-01T11:07:07;99193.09;;;28.57;25.52
69035;BME280;56091;55.756;37.412;2022-08-01T11:12:10;99193.19;;;28.68;25.46
69035;BME280;56091;55.756;37.412;2022-08-01T11:17:36;99176.19;;;28.70;25.89
69035;BME280;56091;55.756;37.412;2022-08-01T11:28:29;99176.06;;;29.89;23.96
69035;BME280;56091;55.756;37.412;2022-08-01T11:54:38;99166.00;;;30.33;23.58
69035;BME280;56091;55.756;37.412;2022-08-01T11:59:42;99171.50;;;30.26;23.78
69035;BME280;56091;55.756;37.412;2022-08-01T12:04:59;99151.66;;;30.31;23.40
69035;BME280;56091;55.756;37.412;2022-08-01T12:10:21;99154.03;;;30.29;23.49
69035;BME280;56091;55.756;37.412;2022-08-01T12:15:24;99151.50;;;29.98;23.63
69035;BME280;56091;55.756;37.412;2022-08-01T12:20:37;99137.28;;;29.52;23.85
69035;BME280;56091;55.756;37.412;2022-08-01T12:25:39;99153.06;;;29.37;24.14
69035;BME280;56091;55.756;37.412;2022-08-01T12:30:40;99137.28;;;29.04;24.55
69035;BME280;56091;55.756;37.412;2022-08-01T12:35:41;99119.78;;;28.99;24.75
69035;BME280;56091;55.756;37.412;2022-08-01T12:40:48;99143.19;;;29.43;24.82
69035;BME280;56091;55.756;37.412;2022-08-01T12:45:50;99140.06;;;29.52;25.27
69035;BME280;56091;55.756;37.412;2022-08-01T12:50:53;99141.56;;;29.90;24.75
69035;BME280;56091;55.756;37.412;2022-08-01T12:55:57;99143.50;;;29.83;24.75
69035;BME280;56091;55.756;37.412;2022-08-01T13:01:05;99122.22;;;29.53;24.10
69035;BME280;56091;55.756;37.412;2022-08-01T13:06:11;99127.88;;;29.67;24.64
69035;BME280;56091;55.756;37.412;2022-08-01T13:11:15;99075.16;;;29.74;24.43
69035;BME280;56091;55.756;37.412;2022-08-01T13:16:18;99122.97;;;30.05;23.92
69035;BME280;56091;55.756;37.412;2022-08-01T13:21:21;99124.44;;;29.85;24.38
69035;BME280;56091;55.756;37.412;2022-08-01T13:26:40;99107.44;;;29.38;25.23
69035;BME280;56091;55.756;37.412;2022-08-01T13:31:43;99125.19;;;28.85;25.80
69035;BME280;56091;55.756;37.412;2022-08-01T13:36:44;99112.88;;;28.45;26.35
69035;BME280;56091;55.756;37.412;2022-08-01T13:41:46;99125.69;;;28.57;26.66
69035;BME280;56091;55.756;37.412;2022-08-01T13:46:47;99126.63;;;28.68;26.14
69035;BME280;56091;55.756;37.412;2022-08-01T13:51:48;99128.19;;;28.66;26.67
69035;BME280;56091;55.756;37.412;2022-08-01T13:56:52;99121.94;;;28.76;26.75
69035;BME280;56091;55.756;37.412;2022-08-01T14:01:53;99127.88;;;28.74;26.11
69035;BME280;56091;55.756;37.412;2022-08-01T14:06:54;99139.53;;;31.90;21.94
69035;BME280;56091;55.756;37.412;2022-08-01T14:11:55;99131.78;;;32.44;21.25
69035;BME280;56091;55.756;37.412;2022-08-01T14:16:56;99126.81;;;36.36;17.79
69035;BME280;56091;55.756;37.412;2022-08-01T14:21:57;99107.44;;;33.15;20.14
69035;BME280;56091;55.756;37.412;2022-08-01T14:26:58;99129.25;;;31.29;22.59
69035;BME280;56091;55.756;37.412;2022-08-01T14:31:59;99113.56;;;30.35;23.75
69035;BME280;56091;55.756;37.412;2022-08-01T14:37:00;99131.06;;;35.84;19.00
69035;BME280;56091;55.756;37.412;2022-08-01T14:42:01;99107.03;;;38.72;14.51
69035;BME280;56091;55.756;37.412;2022-08-01T14:47:02;99125.50;;;40.38;13.34
69035;BME280;56091;55.756;37.412;2022-08-01T14:52:06;99123.50;;;41.47;12.68
69035;BME280;56091;55.756;37.412;2022-08-01T14:57:07;99114.53;;;42.13;12.90
69035;BME280;56091;55.756;37.412;2022-08-01T15:02:08;99105.94;;;41.71;12.10
69035;BME280;56091;55.756;37.412;2022-08-01T15:07:18;99105.31;;;40.80;12.63
69035;BME280;56091;55.756;37.412;2022-08-01T15:12:19;99094.94;;;37.90;14.35
69035;BME280;56091;55.756;37.412;2022-08-01T15:17:24;99107.91;;;35.80;16.90
69035;BME280;56091;55.756;37.412;2022-08-01T15:22:27;99094.75;;;34.52;18.29
69035;BME280;56091;55.756;37.412;2022-08-01T15:27:29;99103.13;;;34.83;18.17
69035;BME280;56091;55.756;37.412;2022-08-01T15:32:30;99099.84;;;35.11;18.20
69035;BME280;56091;55.756;37.412;2022-08-01T15:37:31;99077.59;;;34.22;18.49
69035;BME280;56091;55.756;37.412;2022-08-01T15:42:32;99097.97;;;34.23;18.96
69035;BME280;56091;55.756;37.412;2022-08-01T15:47:33;99097.50;;;33.52;19.89
69035;BME280;56091;55.756;37.412;2022-08-01T15:52:33;99084.06;;;32.87;20.04
69035;BME280;56091;55.756;37.412;2022-08-01T15:57:34;99082.53;;;32.13;21.08
69035;BME280;56091;55.756;37.412;2022-08-01T16:02:35;99094.22;;;31.32;21.60
69035;BME280;56091;55.756;37.412;2022-08-01T16:07:36;99091.41;;;30.74;22.65
69035;BME280;56091;55.756;37.412;2022-08-01T16:12:39;99080.84;;;30.00;24.04
69035;BME280;56091;55.756;37.412;2022-08-01T16:17:40;99074.16;;;29.45;24.27
69035;BME280;56091;55.756;37.412;2022-08-01T16:22:47;99091.16;;;28.88;25.38
69035;BME280;56091;55.756;37.412;2022-08-01T16:27:48;99061.03;;;28.12;26.13
69035;BME280;56091;55.756;37.412;2022-08-01T16:32:49;99093.91;;;27.87;27.28
69035;BME280;56091;55.756;37.412;2022-08-01T16:37:51;99091.78;;;27.46;28.01
69035;BME280;56091;55.756;37.412;2022-08-01T16:42:52;99093.41;;;27.01;28.30
69035;BME280;56091;55.756;37.412;2022-08-01T16:47:53;99079.31;;;26.63;28.13
69035;BME280;56091;55.756;37.412;2022-08-01T16:52:55;99101.78;;;26.42;28.88
69035;BME280;56091;55.756;37.412;2022-08-01T16:57:57;99107.53;;;26.14;29.04
69035;BME280;56091;55.756;37.412;2022-08-01T17:02:58;99096.25;;;25.84;29.62
69035;BME280;56091;55.756;37.412;2022-08-01T17:07:59;99102.97;;;25.67;30.25
69035;BME280;56091;55.756;37.412;2022-08-01T17:13:03;99100.44;;;25.42;30.30
69035;BME280;56091;55.756;37.412;2022-08-01T17:18:05;99086.19;;;25.08;31.05
69035;BME280;56091;55.756;37.412;2022-08-01T17:23:06;99107.19;;;24.97;31.39
69035;BME280;56091;55.756;37.412;2022-08-01T17:28:07;99109.88;;;24.78;32.22
69035;BME280;56091;55.756;37.412;2022-08-01T17:33:09;99111.59;;;24.54;32.70
69035;BME280;56091;55.756;37.412;2022-08-01T17:38:10;99115.66;;;24.32;33.13
69035;BME280;56091;55.756;37.412;2022-08-01T17:43:11;99105.56;;;24.08;33.42
69035;BME280;56091;55.756;37.412;2022-08-01T17:48:15;99101.34;;;23.86;34.02
69035;BME280;56091;55.756;37.412;2022-08-01T17:53:16;99114.56;;;23.80;34.46
69035;BME280;56091;55.756;37.412;2022-08-01T17:58:17;99095.31;;;23.55;34.71
69035;BME280;56091;55.756;37.412;2022-08-01T18:03:21;99110.22;;;23.54;35.04
69035;BME280;56091;55.756;37.412;2022-08-01T18:08:21;99094.53;;;23.30;35.04
69035;BME280;56091;55.756;37.412;2022-08-01T18:13:22;99106.19;;;23.27;35.42
69035;BME280;56091;55.756;37.412;2022-08-01T18:18:23;99102.19;;;23.12;35.90
69035;BME280;56091;55.756;37.412;2022-08-01T18:23:25;99116.38;;;23.02;36.16
69035;BME280;56091;55.756;37.412;2022-08-01T18:28:26;99123.81;;;23.02;36.63
69035;BME280;56091;55.756;37.412;2022-08-01T18:33:28;99130.66;;;22.95;36.52
69035;BME280;56091;55.756;37.412;2022-08-01T18:38:29;99114.50;;;22.81;36.67
69035;BME280;56091;55.756;37.412;2022-08-01T18:43:34;99114.00;;;22.67;36.42
69035;BME280;56091;55.756;37.412;2022-08-01T18:48:35;99126.13;;;22.66;36.90
69035;BME280;56091;55.756;37.412;2022-08-01T18:53:37;99117.63;;;22.59;37.10
69035;BME280;56091;55.756;37.412;2022-08-01T18:58:42;99132.19;;;22.59;37.22
69035;BME280;56091;55.756;37.412;2022-08-01T19:03:43;99139.03;;;22.53;37.46
69035;BME280;56091;55.756;37.412;2022-08-01T19:08:44;99130.06;;;22.44;38.28
69035;BME280;56091;55.756;37.412;2022-08-01T19:13:45;99142.22;;;22.43;38.37
69035;BME280;56091;55.756;37.412;2022-08-01T19:18:46;99126.72;;;22.38;38.35
69035;BME280;56091;55.756;37.412;2022-08-01T19:23:47;99144.56;;;22.32;38.67
69035;BME280;56091;55.756;37.412;2022-08-01T19:29:22;99138.16;;;22.19;39.00
69035;BME280;56091;55.756;37.412;2022-08-01T19:34:26;99144.88;;;22.10;39.01
69035;BME280;56091;55.756;37.412;2022-08-01T19:39:27;99140.91;;;21.98;39.45
69035;BME280;56091;55.756;37.412;2022-08-01T19:44:27;99138.56;;;21.88;40.20
69035;BME280;56091;55.756;37.412;2022-08-01T19:49:29;99137.53;;;21.72;40.08
69035;BME280;56091;55.756;37.412;2022-08-01T19:54:37;99151.25;;;21.72;40.24
69035;BME280;56091;55.756;37.412;2022-08-01T19:59:40;99143.56;;;21.65;40.25
69035;BME280;56091;55.756;37.412;2022-08-01T20:04:47;99142.16;;;21.59;40.73
69035;BME280;56091;55.756;37.412;2022-08-01T20:09:49;99146.06;;;21.49;40.83
69035;BME280;56091;55.756;37.412;2022-08-01T20:14:51;99143.00;;;21.42;40.96
69035;BME280;56091;55.756;37.412;2022-08-01T20:19:53;99145.47;;;21.35;42.05
69035;BME280;56091;55.756;37.412;2022-08-01T20:24:57;99131.84;;;21.17;42.11
69035;BME280;56091;55.756;37.412;2022-08-01T20:29:59;99147.13;;;21.18;42.22
69035;BME280;56091;55.756;37.412;2022-08-01T20:35:02;99163.44;;;21.15;42.58
69035;BME280;56091;55.756;37.412;2022-08-01T20:40:07;99158.47;;;21.08;42.58
69035;BME280;56091;55.756;37.412;2022-08-01T20:45:11;99170.25;;;21.09;42.81
69035;BME280;56091;55.756;37.412;2022-08-01T20:50:12;99163.47;;;21.06;42.72
69035;BME280;56091;55.756;37.412;2022-08-01T20:55:45;99161.38;;;21.03;42.63
69035;BME280;56091;55.756;37.412;2022-08-01T21:00:51;99171.56;;;21.02;42.78
69035;BME280;56091;55.756;37.412;2022-08-01T21:05:56;99171.72;;;20.97;42.69
69035;BME280;56091;55.756;37.412;2022-08-01T21:11:02;99168.34;;;20.92;42.95
69035;BME280;56091;55.756;37.412;2022-08-01T21:16:07;99161.13;;;20.87;43.64
69035;BME280;56091;55.756;37.412;2022-08-01T21:21:16;99153.69;;;20.79;43.72
69035;BME280;56091;55.756;37.412;2022-08-01T21:26:19;99166.59;;;20.78;44.03
69035;BME280;56091;55.756;37.412;2022-08-01T21:31:21;99163.38;;;20.76;43.93
69035;BME280;56091;55.756;37.412;2022-08-01T21:36:22;99154.53;;;20.71;44.06
69035;BME280;56091;55.756;37.412;2022-08-01T21:41:25;99158.25;;;20.66;44.13
69035;BME280;56091;55.756;37.412;2022-08-01T21:46:28;99148.56;;;20.60;43.98
69035;BME280;56091;55.756;37.412;2022-08-01T21:51:45;99157.25;;;20.44;44.33
69035;BME280;56091;55.756;37.412;2022-08-01T22:07:24;99158.91;;;20.28;44.91
69035;BME280;56091;55.756;37.412;2022-08-01T22:12:27;99157.59;;;20.25;45.39
69035;BME280;56091;55.756;37.412;2022-08-01T22:17:39;99160.16;;;20.22;45.65
69035;BME280;56091;55.756;37.412;2022-08-01T22:22:41;99145.38;;;20.05;45.87
69035;BME280;56091;55.756;37.412;2022-08-01T22:27:42;99151.63;;;20.06;45.74
69035;BME280;56091;55.756;37.412;2022-08-01T22:32:46;99164.69;;;20.09;46.06
69035;BME280;56091;55.756;37.412;2022-08-01T22:37:47;99159.06;;;20.05;46.20
69035;BME280;56091;55.756;37.412;2022-08-01T22:42:52;99162.72;;;20.01;46.28
69035;BME280;56091;55.756;37.412;2022-08-01T22:48:23;99156.78;;;19.99;46.80
69035;BME280;56091;55.756;37.412;2022-08-01T22:53:34;99158.22;;;19.96;46.32
69035;BME280;56091;55.756;37.412;2022-08-01T22:58:39;99157.25;;;19.92;46.68
69035;BME280;56091;55.756;37.412;2022-08-01T23:03:44;99154.34;;;19.88;47.07
69035;BME280;56091;55.756;37.412;2022-08-01T23:08:46;99133.06;;;19.77;46.96
69035;BME280;56091;55.756;37.412;2022-08-01T23:13:51;99133.25;;;19.80;47.48
69035;BME280;56091;55.756;37.412;2022-08-01T23:18:52;99135.81;;;19.77;47.89
69035;BME280;56091;55.756;37.412;2022-08-01T23:23:55;99129.50;;;19.67;47.94
69035;BME280;56091;55.756;37.412;2022-08-01T23:28:57;99127.41;;;19.64;48.16
69035;BME280;56091;55.756;37.412;2022-08-01T23:33:58;99128.03;;;19.61;48.25
69035;BME280;56091;55.756;37.412;2022-08-01T23:38:59;99136.88;;;19.58;48.20
69035;BME280;56091;55.756;37.412;2022-08-01T23:44:00;99131.25;;;19.55;48.64
69035;BME280;56091;55.756;37.412;2022-08-01T23:49:02;99133.00;;;19.50;48.40
69035;BME280;56091;55.756;37.412;2022-08-01T23:54:03;99120.91;;;19.43;48.40
69035;BME280;56091;55.756;37.412;2022-08-01T23:59:04;99138.78;;;19.49;48.16
